createdAt,value
2018-07-20T00:00:03.323Z,6.00
2018-07-20T00:02:31.673Z,6.03
2018-07-20T00:05:00.061Z,6.97
2018-07-20T00:07:28.393Z,5.83
2018-07-20T00:09:56.624Z,5.50
2018-07-20T00:12:24.996Z,7.03
2018-07-20T00:14:53.347Z,6.23
2018-07-20T00:17:21.674Z,6.40
2018-07-20T00:19:50.016Z,6.17
2018-07-20T00:22:18.396Z,5.70
2018-07-20T00:24:46.867Z,5.50
2018-07-20T00:27:15.253Z,7.00
2018-07-20T00:29:43.630Z,5.80
2018-07-20T00:32:12.210Z,6.40
2018-07-20T00:34:40.570Z,6.50
2018-07-20T00:37:08.889Z,6.40
2018-07-20T00:39:37.140Z,6.53
2018-07-20T00:42:05.520Z,6.00
2018-07-20T00:44:33.861Z,5.33
2018-07-20T00:47:02.248Z,5.80
2018-07-20T00:49:30.581Z,6.10
2018-07-20T00:51:58.949Z,6.97
2018-07-20T00:54:27.324Z,6.80
2018-07-20T00:56:55.695Z,5.27
2018-07-20T00:59:24.073Z,5.50
2018-07-20T01:01:52.407Z,5.77
2018-07-20T01:04:20.656Z,6.30
2018-07-20T01:06:48.997Z,6.20
2018-07-20T01:09:17.349Z,6.40
2018-07-20T01:11:45.701Z,6.33
2018-07-20T01:14:14.124Z,5.97
2018-07-20T01:16:42.525Z,6.77
2018-07-20T01:19:10.903Z,6.13
2018-07-20T01:21:39.266Z,5.90
2018-07-20T01:24:07.689Z,6.10
2018-07-20T01:26:36.044Z,6.07
2018-07-20T01:29:04.519Z,6.87
2018-07-20T01:31:32.806Z,6.00
2018-07-20T01:34:01.169Z,6.53
2018-07-20T01:36:29.476Z,6.60
2018-07-20T01:38:57.750Z,6.80
2018-07-20T01:41:26.161Z,6.17
2018-07-20T01:43:54.495Z,5.70
2018-07-20T01:46:22.783Z,6.00
2018-07-20T01:48:51.104Z,6.30
2018-07-20T01:51:19.454Z,5.93
2018-07-20T01:53:47.816Z,6.50
2018-07-20T01:56:16.146Z,5.57
2018-07-20T01:58:44.517Z,5.50
2018-07-20T02:01:12.903Z,6.50
2018-07-20T02:03:41.291Z,6.03
2018-07-20T02:06:09.477Z,5.70
2018-07-20T02:08:37.833Z,6.43
2018-07-20T02:11:06.239Z,5.77
2018-07-20T02:13:34.628Z,6.70
2018-07-20T02:16:02.981Z,6.47
2018-07-20T02:18:31.333Z,5.70
2018-07-20T02:20:59.672Z,6.60
2018-07-20T02:23:27.999Z,6.00
2018-07-20T02:25:56.305Z,5.93
2018-07-20T02:28:24.724Z,5.93
2018-07-20T02:30:53.116Z,6.60
2018-07-20T02:33:21.467Z,6.10
2018-07-20T02:35:49.778Z,6.03
2018-07-20T02:38:18.144Z,6.20
2018-07-20T02:40:46.497Z,5.90
2018-07-20T02:43:14.848Z,6.07
2018-07-20T02:45:43.241Z,5.40
2018-07-20T02:48:11.592Z,6.57
2018-07-20T02:50:39.921Z,6.13
2018-07-20T02:53:08.293Z,5.90
2018-07-20T02:55:36.632Z,6.93
2018-07-20T02:58:05.169Z,6.47
2018-07-20T03:00:33.518Z,5.70
2018-07-20T03:03:01.937Z,6.23
2018-07-20T03:05:30.269Z,6.17
2018-07-20T03:07:58.629Z,6.43
2018-07-20T03:10:26.966Z,6.50
2018-07-20T03:12:55.341Z,6.10
2018-07-20T03:15:23.749Z,6.57
2018-07-20T03:17:52.112Z,6.17
2018-07-20T03:20:20.544Z,7.17
2018-07-20T03:22:48.900Z,6.10
2018-07-20T03:25:17.210Z,6.50
2018-07-20T03:27:45.597Z,6.10
2018-07-20T03:30:13.964Z,6.50
2018-07-20T03:32:42.488Z,6.50
2018-07-20T03:35:10.794Z,6.53
2018-07-20T03:37:39.155Z,6.87
2018-07-20T03:40:07.490Z,6.70
2018-07-20T03:42:35.838Z,6.43
2018-07-20T03:45:05.277Z,7.27
2018-07-20T03:47:34.237Z,6.40
2018-07-20T03:50:02.625Z,6.33
2018-07-20T03:52:30.955Z,6.17
2018-07-20T03:54:59.290Z,6.67
2018-07-20T03:57:27.637Z,6.20
2018-07-20T03:59:55.953Z,5.97
2018-07-20T04:02:24.396Z,6.50
2018-07-20T04:04:52.805Z,6.80
2018-07-20T04:07:21.304Z,6.20
2018-07-20T04:09:49.728Z,6.57
2018-07-20T04:12:18.064Z,7.20
2018-07-20T04:14:46.417Z,6.20
2018-07-20T04:17:14.796Z,6.80
2018-07-20T04:19:43.190Z,6.20
2018-07-20T04:22:11.505Z,6.07
2018-07-20T04:24:39.873Z,6.23
2018-07-20T04:27:08.232Z,7.27
2018-07-20T04:29:36.554Z,6.60
2018-07-20T04:32:05.221Z,6.20
2018-07-20T04:34:33.726Z,6.20
2018-07-20T04:37:02.066Z,7.10
2018-07-20T04:39:30.376Z,6.77
2018-07-20T04:41:58.709Z,6.50
2018-07-20T04:44:27.025Z,6.90
2018-07-20T04:46:55.492Z,6.20
2018-07-20T04:49:23.832Z,7.10
2018-07-20T04:51:52.162Z,6.20
2018-07-20T04:54:20.462Z,6.20
2018-07-20T04:56:48.942Z,6.87
2018-07-20T04:59:17.291Z,6.57
2018-07-20T05:01:45.492Z,6.50
2018-07-20T05:04:13.812Z,6.63
2018-07-20T05:06:42.196Z,7.33
2018-07-20T05:09:10.674Z,7.93
2018-07-20T05:11:39.162Z,7.23
2018-07-20T05:14:08.008Z,6.90
2018-07-20T05:16:36.381Z,7.00
2018-07-20T05:19:05.024Z,6.43
2018-07-20T05:21:33.382Z,6.03
2018-07-20T05:24:02.735Z,6.20
2018-07-20T05:26:31.137Z,6.27
2018-07-20T05:28:59.945Z,6.47
2018-07-20T05:31:29.278Z,6.60
2018-07-20T05:33:57.983Z,6.10
2018-07-20T05:36:26.370Z,7.00
2018-07-20T05:38:54.687Z,6.70
2018-07-20T05:41:23.101Z,7.13
2018-07-20T05:43:51.547Z,7.10
2018-07-20T05:46:19.957Z,7.37
2018-07-20T05:48:48.463Z,7.30
2018-07-20T05:51:16.887Z,6.90
2018-07-20T05:53:46.049Z,6.50
2018-07-20T05:56:14.511Z,6.90
2018-07-20T05:58:42.948Z,8.10
2018-07-20T06:01:11.429Z,7.60
2018-07-20T06:03:39.807Z,7.67
2018-07-20T06:06:08.225Z,7.60
2018-07-20T06:08:36.556Z,7.00
2018-07-20T06:11:05.310Z,8.50
2018-07-20T06:13:33.726Z,9.10
2018-07-20T06:16:02.080Z,8.10
2018-07-20T06:18:31.291Z,8.30
2018-07-20T06:20:59.671Z,7.57
2018-07-20T06:23:28.102Z,7.87
2018-07-20T06:25:56.439Z,7.70
2018-07-20T06:28:24.782Z,7.77
2018-07-20T06:30:53.104Z,8.23
2018-07-20T06:33:21.475Z,8.20
2018-07-20T06:35:49.789Z,6.70
2018-07-20T06:38:18.160Z,7.03
2018-07-20T06:40:47.267Z,7.10
2018-07-20T06:43:15.595Z,7.50
2018-07-20T06:45:43.983Z,7.43
2018-07-20T06:48:12.409Z,6.80
2018-07-20T06:50:40.816Z,7.77
2018-07-20T06:53:09.158Z,7.70
2018-07-20T06:55:37.601Z,8.83
2018-07-20T06:58:06.073Z,8.63
2018-07-20T07:00:34.292Z,8.70
2018-07-20T07:03:02.682Z,9.00
2018-07-20T07:05:31.068Z,8.40
2018-07-20T07:07:59.397Z,8.67
2018-07-20T07:10:27.753Z,9.03
2018-07-20T07:12:56.222Z,9.70
2018-07-20T07:15:24.522Z,8.97
2018-07-20T07:17:52.925Z,8.87
2018-07-20T07:20:21.362Z,8.43
2018-07-20T07:22:49.722Z,9.10
2018-07-20T07:25:18.142Z,8.60
2018-07-20T07:27:46.478Z,9.00
2018-07-20T07:30:14.867Z,8.80
2018-07-20T07:32:43.222Z,8.57
2018-07-20T07:35:11.664Z,9.53
2018-07-20T07:37:40.043Z,9.33
2018-07-20T07:40:08.528Z,8.90
2018-07-20T07:42:36.894Z,8.60
2018-07-20T07:45:05.306Z,8.53
2018-07-20T07:47:33.654Z,8.40
2018-07-20T07:50:02.068Z,8.63
2018-07-20T07:52:30.452Z,10.13
2018-07-20T07:54:58.850Z,7.47
2018-07-20T07:57:27.388Z,7.83
2018-07-20T07:59:55.665Z,7.80
2018-07-20T08:02:24.007Z,8.00
2018-07-20T08:04:52.389Z,8.17
2018-07-20T08:07:20.770Z,7.43
2018-07-20T08:09:49.177Z,9.40
2018-07-20T08:12:17.670Z,8.00
2018-07-20T08:14:46.037Z,8.90
2018-07-20T08:17:14.437Z,7.70
2018-07-20T08:19:42.810Z,7.73
2018-07-20T08:22:11.154Z,8.20
2018-07-20T08:24:39.619Z,7.27
2018-07-20T08:27:08.080Z,8.00
2018-07-20T08:29:36.488Z,7.50
2018-07-20T08:32:04.910Z,7.23
2018-07-20T08:34:33.272Z,8.03
2018-07-20T08:37:01.624Z,8.00
2018-07-20T08:39:29.949Z,7.77
2018-07-20T08:41:58.282Z,7.67
2018-07-20T08:44:26.696Z,7.80
2018-07-20T08:46:55.067Z,7.30
2018-07-20T08:49:23.391Z,7.83
2018-07-20T08:51:51.784Z,7.93
2018-07-20T08:54:20.117Z,7.27
2018-07-20T08:56:48.388Z,6.90
2018-07-20T08:59:16.743Z,6.47
2018-07-20T09:01:45.178Z,6.97
2018-07-20T09:04:13.798Z,6.67
2018-07-20T09:06:45.049Z,7.20
2018-07-20T09:09:13.414Z,6.87
2018-07-20T09:11:41.793Z,6.00
2018-07-20T09:14:10.118Z,9.10
2018-07-20T09:16:38.473Z,6.53
2018-07-20T09:19:06.932Z,6.10
2018-07-20T09:21:35.366Z,6.47
2018-07-20T09:24:03.796Z,7.30
2018-07-20T09:26:32.247Z,6.00
2018-07-20T09:29:00.611Z,6.37
2018-07-20T09:31:29.032Z,6.40
2018-07-20T09:33:57.562Z,6.50
2018-07-20T09:36:25.891Z,6.47
2018-07-20T09:38:54.346Z,6.50
2018-07-20T09:41:22.699Z,5.90
2018-07-20T09:43:51.094Z,6.33
2018-07-20T09:46:19.442Z,7.67
2018-07-20T09:48:47.780Z,6.10
2018-07-20T09:51:16.706Z,7.57
2018-07-20T09:53:44.992Z,6.70
2018-07-20T09:56:13.408Z,5.80
2018-07-20T09:58:41.794Z,5.70
2018-07-20T10:01:10.178Z,5.77
2018-07-20T10:03:38.549Z,6.50
2018-07-20T10:06:06.947Z,6.33
2018-07-20T10:08:35.311Z,6.70
2018-07-20T10:11:03.649Z,5.53
2018-07-20T10:13:32.055Z,6.57
2018-07-20T10:16:00.449Z,6.80
2018-07-20T10:18:28.797Z,6.20
2018-07-20T10:20:57.191Z,6.20
2018-07-20T10:23:25.538Z,5.93
2018-07-20T10:25:53.864Z,6.40
2018-07-20T10:28:22.192Z,6.10
2018-07-20T10:30:50.509Z,6.23
2018-07-20T10:33:18.870Z,6.20
2018-07-20T10:35:47.221Z,6.57
2018-07-20T10:38:15.534Z,5.47
2018-07-20T10:40:43.889Z,6.60
2018-07-20T10:43:12.325Z,5.90
2018-07-20T10:45:40.544Z,6.20
2018-07-20T10:48:08.930Z,5.50
2018-07-20T10:50:37.282Z,6.67
2018-07-20T10:53:05.751Z,6.67
2018-07-20T10:55:34.055Z,6.23
2018-07-20T10:58:02.498Z,6.37
2018-07-20T11:00:31.465Z,6.53
2018-07-20T11:02:59.915Z,6.00
2018-07-20T11:05:28.245Z,6.70
2018-07-20T11:07:56.742Z,6.47
2018-07-20T11:10:25.244Z,7.00
2018-07-20T11:12:53.740Z,8.17
2018-07-20T11:15:22.154Z,7.03
2018-07-20T11:17:50.550Z,7.20
2018-07-20T11:20:18.897Z,7.07
2018-07-20T11:22:47.358Z,8.47
2018-07-20T11:25:15.601Z,8.17
2018-07-20T11:27:44.007Z,7.70
2018-07-20T11:30:12.354Z,7.10
2018-07-20T11:32:40.740Z,7.97
2018-07-20T11:35:09.132Z,8.47
2018-07-20T11:37:37.509Z,7.47
2018-07-20T11:40:05.862Z,7.67
2018-07-20T11:42:34.180Z,8.20
2018-07-20T11:45:02.583Z,7.50
2018-07-20T11:47:30.970Z,7.57
2018-07-20T11:49:59.290Z,7.43
2018-07-20T11:52:27.608Z,8.23
2018-07-20T11:54:55.945Z,7.20
2018-07-20T11:57:24.354Z,7.03
2018-07-20T11:59:52.703Z,7.80
2018-07-20T12:02:20.961Z,6.43
2018-07-20T12:04:49.325Z,6.90
2018-07-20T12:07:17.725Z,6.90
2018-07-20T12:09:46.061Z,6.50
2018-07-20T12:12:14.395Z,6.83
2018-07-20T12:14:42.860Z,7.50
2018-07-20T12:17:11.395Z,7.87
2018-07-20T12:19:39.813Z,7.20
2018-07-20T12:22:08.185Z,9.00
2018-07-20T12:24:36.514Z,7.47
2018-07-20T12:27:04.956Z,7.70
2018-07-20T12:29:33.328Z,8.07
2018-07-20T12:32:01.712Z,8.13
2018-07-20T12:34:30.099Z,7.83
2018-07-20T12:36:58.442Z,7.70
2018-07-20T12:39:26.777Z,7.97
2018-07-20T12:41:55.309Z,8.60
2018-07-20T12:44:23.669Z,7.20
2018-07-20T12:46:52.013Z,8.23
2018-07-20T12:49:20.498Z,8.00
2018-07-20T12:51:48.849Z,7.53
2018-07-20T12:54:17.155Z,8.90
2018-07-20T12:56:45.586Z,7.90
2018-07-20T12:59:13.957Z,7.13
2018-07-20T13:01:42.444Z,6.87
2018-07-20T13:04:10.872Z,7.60
2018-07-20T13:06:39.227Z,7.23
2018-07-20T13:09:09.909Z,7.00
2018-07-20T13:11:38.373Z,7.27
2018-07-20T13:14:07.146Z,7.57
2018-07-20T13:16:35.885Z,8.00
2018-07-20T13:19:04.822Z,6.50
2018-07-20T13:21:33.281Z,7.10
2018-07-20T13:24:01.677Z,7.60
2018-07-20T13:26:30.082Z,7.60
2018-07-20T13:28:58.441Z,7.00
2018-07-20T13:31:26.765Z,7.67
2018-07-20T13:33:55.448Z,6.97
2018-07-20T13:36:23.849Z,6.80
2018-07-20T13:38:52.228Z,6.80
2018-07-20T13:41:20.641Z,6.83
2018-07-20T13:43:49.003Z,6.70
2018-07-20T13:46:17.383Z,6.93
2018-07-20T13:48:45.860Z,7.03
2018-07-20T13:51:14.282Z,9.10
2018-07-20T13:53:43.336Z,8.07
2018-07-20T13:56:11.746Z,6.87
2018-07-20T13:58:40.132Z,6.50
2018-07-20T14:01:08.573Z,6.60
2018-07-20T14:03:36.918Z,6.53
2018-07-20T14:06:05.917Z,7.30
2018-07-20T14:08:34.252Z,6.40
2018-07-20T14:11:02.765Z,7.40
2018-07-20T14:13:31.179Z,6.37
2018-07-20T14:15:59.562Z,6.40
2018-07-20T14:18:27.941Z,6.50
2018-07-20T14:20:56.318Z,6.03
2018-07-20T14:23:24.749Z,6.53
2018-07-20T14:25:53.127Z,6.40
2018-07-20T14:28:22.125Z,5.60
2018-07-20T14:30:50.590Z,6.60
2018-07-20T14:33:19.042Z,6.23
2018-07-20T14:35:47.452Z,6.40
2018-07-20T14:38:15.832Z,6.03
2018-07-20T14:40:44.263Z,6.60
2018-07-20T14:43:12.656Z,6.47
2018-07-20T14:45:41.038Z,6.00
2018-07-20T14:48:09.532Z,6.43
2018-07-20T14:50:37.973Z,6.40
2018-07-20T14:53:06.410Z,5.57
2018-07-20T14:55:34.826Z,6.07
2018-07-20T14:58:03.140Z,5.47
2018-07-20T15:00:31.550Z,6.03
2018-07-20T15:02:59.950Z,5.83
2018-07-20T15:05:28.427Z,5.80
2018-07-20T15:07:56.802Z,5.37
2018-07-20T15:10:25.228Z,6.80
2018-07-20T15:12:53.741Z,5.87
2018-07-20T15:15:22.167Z,5.17
2018-07-20T15:17:50.566Z,5.07
2018-07-20T15:20:19.069Z,6.30
2018-07-20T15:22:47.425Z,5.80
2018-07-20T15:25:15.936Z,5.67
2018-07-20T15:27:44.323Z,5.97
2018-07-20T15:30:12.754Z,5.73
2018-07-20T15:32:41.172Z,5.00
2018-07-20T15:35:09.621Z,5.87
2018-07-20T15:37:37.882Z,6.50
2018-07-20T15:40:06.401Z,5.53
2018-07-20T15:42:34.761Z,5.80
2018-07-20T15:45:03.258Z,7.50
2018-07-20T15:47:32.001Z,6.80
2018-07-20T15:50:00.338Z,6.07
2018-07-20T15:54:57.189Z,6.40
2018-07-20T15:57:25.664Z,6.67
2018-07-20T15:59:54.178Z,6.13
2018-07-20T16:02:22.478Z,5.67
2018-07-20T16:04:50.828Z,6.50
2018-07-20T16:07:19.271Z,6.57
2018-07-20T16:09:47.726Z,7.37
2018-07-20T16:12:16.083Z,6.80
2018-07-20T16:14:44.453Z,6.77
2018-07-20T16:17:12.985Z,7.10
2018-07-20T16:19:41.333Z,7.67
2018-07-20T16:22:09.872Z,7.90
2018-07-20T16:24:38.303Z,7.40
2018-07-20T16:27:07.271Z,7.60
2018-07-20T16:29:35.714Z,7.40
2018-07-20T16:32:04.109Z,8.27
2018-07-20T16:34:32.579Z,7.17
2018-07-20T16:37:00.989Z,7.07
2018-07-20T16:39:29.526Z,6.23
2018-07-20T16:41:57.950Z,6.03
2018-07-20T16:44:26.337Z,6.13
2018-07-20T16:46:54.700Z,6.00
2018-07-20T16:49:23.152Z,6.00
2018-07-20T16:51:51.517Z,6.00
2018-07-20T16:54:19.902Z,5.80
2018-07-20T16:56:48.991Z,4.70
2018-07-20T16:59:17.436Z,5.00
2018-07-20T17:01:45.836Z,5.60
2018-07-20T17:04:14.186Z,5.10
2018-07-20T17:06:42.385Z,5.10
2018-07-20T17:09:11.676Z,4.53
2018-07-20T17:11:40.486Z,4.80
2018-07-20T17:14:08.909Z,4.50
2018-07-20T17:16:37.257Z,5.17
2018-07-20T17:19:05.710Z,5.07
2018-07-20T17:21:34.282Z,4.40
2018-07-20T17:24:02.765Z,4.80
2018-07-20T17:26:31.182Z,4.60
2018-07-20T17:28:59.585Z,4.50
2018-07-20T17:31:28.050Z,4.60
2018-07-20T17:33:56.403Z,4.37
2018-07-20T17:36:24.783Z,4.00
2018-07-20T17:38:53.238Z,3.97
2018-07-20T17:41:21.725Z,5.10
2018-07-20T17:43:50.161Z,4.47
2018-07-20T17:46:18.727Z,4.73
2018-07-20T17:48:47.064Z,4.10
2018-07-20T17:51:15.607Z,4.00
2018-07-20T17:53:43.810Z,4.30
2018-07-20T17:56:12.269Z,4.37
2018-07-20T17:58:40.689Z,5.43
2018-07-20T18:01:09.048Z,4.70
2018-07-20T18:03:37.509Z,3.77
2018-07-20T18:06:05.970Z,3.67
2018-07-20T18:08:34.357Z,3.90
2018-07-20T18:11:02.789Z,4.23
2018-07-20T18:13:31.832Z,4.17
2018-07-20T18:16:00.250Z,4.20
2018-07-20T18:18:28.632Z,3.77
2018-07-20T18:20:57.017Z,4.07
2018-07-20T18:23:25.558Z,3.80
2018-07-20T18:25:54.063Z,4.23
2018-07-20T18:28:22.438Z,4.47
2018-07-20T18:30:51.406Z,4.17
2018-07-20T18:33:19.845Z,4.97
2018-07-20T18:35:48.250Z,4.73
2018-07-20T18:38:16.752Z,4.20
2018-07-20T18:40:45.340Z,4.17
2018-07-20T18:43:13.705Z,4.00
2018-07-20T18:45:42.108Z,4.37
2018-07-20T18:48:11.764Z,6.40
2018-07-20T18:50:40.086Z,4.17
2018-07-20T18:53:08.451Z,4.63
2018-07-20T18:55:36.850Z,5.20
2018-07-20T18:58:05.320Z,4.83
2018-07-20T19:00:33.721Z,5.20
2018-07-20T19:03:02.077Z,5.07
2018-07-20T19:05:30.448Z,4.97
2018-07-20T19:07:58.849Z,5.27
2018-07-20T19:10:27.263Z,5.07
2018-07-20T19:12:55.698Z,5.30
2018-07-20T19:15:24.137Z,4.67
2018-07-20T19:17:52.546Z,4.60
2018-07-20T19:20:20.968Z,4.90
2018-07-20T19:22:49.325Z,5.13
2018-07-20T19:25:17.773Z,5.37
2018-07-20T19:27:46.113Z,4.17
2018-07-20T19:30:14.460Z,4.73
2018-07-20T19:32:42.907Z,5.47
2018-07-20T19:35:12.264Z,4.60
2018-07-20T19:37:40.646Z,4.77
2018-07-20T19:40:09.014Z,4.63
2018-07-20T19:42:37.407Z,4.90
2018-07-20T19:45:06.019Z,5.07
2018-07-20T19:47:34.341Z,4.83
2018-07-20T19:50:02.818Z,5.10
2018-07-20T19:52:31.247Z,5.30
2018-07-20T19:54:59.607Z,5.23
2018-07-20T19:57:27.969Z,5.40
2018-07-20T19:59:56.332Z,5.37
2018-07-20T20:02:25.013Z,5.20
2018-07-20T20:04:53.435Z,5.50
2018-07-20T20:07:21.886Z,5.80
2018-07-20T20:09:50.362Z,5.70
2018-07-20T20:12:18.855Z,5.57
2018-07-20T20:14:47.348Z,5.70
2018-07-20T20:17:15.770Z,5.93
2018-07-20T20:19:44.182Z,5.57
2018-07-20T20:22:12.595Z,5.40
2018-07-20T20:24:41.069Z,5.73
2018-07-20T20:27:09.523Z,5.03
2018-07-20T20:29:37.966Z,5.90
2018-07-20T20:32:06.525Z,5.70
2018-07-20T20:34:34.989Z,5.20
2018-07-20T20:37:03.406Z,4.53
2018-07-20T20:39:31.862Z,5.23
2018-07-20T20:42:00.240Z,5.00
2018-07-20T20:44:28.565Z,5.37
2018-07-20T20:46:56.911Z,5.60
2018-07-20T20:49:25.783Z,5.40
2018-07-20T20:51:54.283Z,5.47
2018-07-20T20:54:22.640Z,5.50
2018-07-20T20:56:51.095Z,5.60
2018-07-20T20:59:19.552Z,6.80
2018-07-20T21:01:47.977Z,9.90
2018-07-20T21:04:16.305Z,5.90
2018-07-20T21:06:44.722Z,6.87
2018-07-20T21:09:13.106Z,6.10
2018-07-20T21:11:41.706Z,6.40
2018-07-20T21:14:10.018Z,5.67
2018-07-20T21:16:38.571Z,6.70
2018-07-20T21:19:06.977Z,6.20
2018-07-20T21:21:35.412Z,7.27
2018-07-20T21:24:03.895Z,5.93
2018-07-20T21:26:32.285Z,7.03
2018-07-20T21:29:00.706Z,7.07
2018-07-20T21:31:29.172Z,7.17
2018-07-20T21:33:57.561Z,7.90
2018-07-20T21:36:25.976Z,7.30
2018-07-20T21:38:54.425Z,7.33
2018-07-20T21:41:22.856Z,7.57
2018-07-20T21:43:51.331Z,7.83
2018-07-20T21:46:19.689Z,7.70
2018-07-20T21:48:48.147Z,7.43
2018-07-20T21:51:16.589Z,8.70
2018-07-20T21:53:44.941Z,7.13
2018-07-20T21:56:13.365Z,8.80
2018-07-20T21:58:41.783Z,8.40
2018-07-20T22:01:10.229Z,8.60
2018-07-20T22:03:38.592Z,11.97
2018-07-20T22:06:07.073Z,7.43
2018-07-20T22:08:35.400Z,8.17
2018-07-20T22:11:03.743Z,7.83
2018-07-20T22:13:32.088Z,7.07
2018-07-20T22:16:00.442Z,7.83
2018-07-20T22:18:28.827Z,7.37
2018-07-20T22:20:57.315Z,7.50
2018-07-20T22:23:25.653Z,7.43
2018-07-20T22:25:54.045Z,8.40
2018-07-20T22:28:22.418Z,7.43
2018-07-20T22:30:50.761Z,7.17
2018-07-20T22:33:19.136Z,7.80
2018-07-20T22:35:47.498Z,7.37
2018-07-20T22:38:15.836Z,7.53
2018-07-20T22:40:44.206Z,8.90
2018-07-20T22:43:12.566Z,10.77
2018-07-20T22:45:41.080Z,7.80
2018-07-20T22:48:09.522Z,8.40
2018-07-20T22:50:37.884Z,7.90
2018-07-20T22:53:06.301Z,8.80
2018-07-20T22:55:34.633Z,7.97
2018-07-20T22:58:03.052Z,8.57
2018-07-20T23:00:31.447Z,8.40
2018-07-20T23:02:59.871Z,8.03
2018-07-20T23:05:28.182Z,8.83
2018-07-20T23:07:56.600Z,8.97
2018-07-20T23:10:25.003Z,8.73
2018-07-20T23:12:54.066Z,9.20
2018-07-20T23:15:22.450Z,9.47
2018-07-20T23:17:50.877Z,9.50
2018-07-20T23:20:19.240Z,9.70
2018-07-20T23:22:47.675Z,9.40
2018-07-20T23:25:16.064Z,9.70
2018-07-20T23:27:44.453Z,8.80
2018-07-20T23:30:12.805Z,9.30
2018-07-20T23:32:41.132Z,9.37
2018-07-20T23:35:09.542Z,9.50
2018-07-20T23:37:37.919Z,9.70
2018-07-20T23:40:06.710Z,8.83
2018-07-20T23:42:35.056Z,8.90
2018-07-20T23:45:03.528Z,8.57
2018-07-20T23:47:31.922Z,9.53
2018-07-20T23:50:00.264Z,9.37
2018-07-20T23:52:28.040Z,10.20
2018-07-20T23:54:56.440Z,9.07
2018-07-20T23:57:24.834Z,9.77
2018-07-20T23:59:53.182Z,9.10
